sensor_id;sensor_type;location;lat;lon;timestamp;temperature;humidity
43015;DHT22;28637;50.554;7.032;2023-04-06T00:00:13;2.20;99.90
43015;DHT22;28637;50.554;7.032;2023-04-06T00:05:14;2.20;99.90
43015;DHT22;28637;50.554;7.032;2023-04-06T00:10:16;2.40;99.90
43015;DHT22;28637;50.554;7.032;2023-04-06T00:15:17;2.60;99.90
43015;DHT22;28637;50.554;7.032;2023-04-06T00:20:18;2.60;99.90
43015;DHT22;28637;50.554;7.032;2023-04-06T00:25:18;2.50;99.90
43015;DHT22;28637;50.554;7.032;2023-04-06T00:30:20;2.40;99.90
43015;DHT22;28637;50.554;7.032;2023-04-06T00:35:21;2.40;99.90
43015;DHT22;28637;50.554;7.032;2023-04-06T00:40:21;2.30;99.90
43015;DHT22;28637;50.554;7.032;2023-04-06T00:45:22;2.30;99.90
43015;DHT22;28637;50.554;7.032;2023-04-06T00:50:23;2.30;99.90
43015;DHT22;28637;50.554;7.032;2023-04-06T00:55:24;2.20;99.90
43015;DHT22;28637;50.554;7.032;2023-04-06T01:00:25;2.20;99.90
43015;DHT22;28637;50.554;7.032;2023-04-06T01:05:26;2.10;99.90
43015;DHT22;28637;50.554;7.032;2023-04-06T01:10:28;2.00;99.90
43015;DHT22;28637;50.554;7.032;2023-04-06T01:15:29;2.00;99.90
43015;DHT22;28637;50.554;7.032;2023-04-06T01:20:30;1.90;99.90
43015;DHT22;28637;50.554;7.032;2023-04-06T01:25:31;1.80;99.90
43015;DHT22;28637;50.554;7.032;2023-04-06T01:30:32;1.80;99.90
43015;DHT22;28637;50.554;7.032;2023-04-06T01:35:32;1.70;99.90
43015;DHT22;28637;50.554;7.032;2023-04-06T01:40:33;1.70;99.90
43015;DHT22;28637;50.554;7.032;2023-04-06T01:45:34;1.60;99.90
43015;DHT22;28637;50.554;7.032;2023-04-06T01:50:34;1.40;99.90
43015;DHT22;28637;50.554;7.032;2023-04-06T01:55:35;1.50;99.90
43015;DHT22;28637;50.554;7.032;2023-04-06T02:00:36;1.60;99.90
43015;DHT22;28637;50.554;7.032;2023-04-06T02:05:37;1.40;99.90
43015;DHT22;28637;50.554;7.032;2023-04-06T02:10:40;1.40;99.90
43015;DHT22;28637;50.554;7.032;2023-04-06T02:15:41;1.40;99.90
43015;DHT22;28637;50.554;7.032;2023-04-06T02:20:41;1.30;99.90
43015;DHT22;28637;50.554;7.032;2023-04-06T02:25:42;1.30;99.90
43015;DHT22;28637;50.554;7.032;2023-04-06T02:30:43;1.20;99.90
43015;DHT22;28637;50.554;7.032;2023-04-06T02:35:44;1.20;99.90
43015;DHT22;28637;50.554;7.032;2023-04-06T02:40:46;1.10;99.90
43015;DHT22;28637;50.554;7.032;2023-04-06T02:45:46;1.20;99.90
43015;DHT22;28637;50.554;7.032;2023-04-06T02:50:47;1.20;99.90
43015;DHT22;28637;50.554;7.032;2023-04-06T02:55:47;1.30;99.90
43015;DHT22;28637;50.554;7.032;2023-04-06T03:00:48;1.30;99.90
43015;DHT22;28637;50.554;7.032;2023-04-06T03:05:49;1.30;99.90
43015;DHT22;28637;50.554;7.032;2023-04-06T03:10:50;1.40;99.90
43015;DHT22;28637;50.554;7.032;2023-04-06T03:15:50;1.40;99.90
43015;DHT22;28637;50.554;7.032;2023-04-06T03:20:51;1.30;99.90
43015;DHT22;28637;50.554;7.032;2023-04-06T03:25:55;1.30;99.90
43015;DHT22;28637;50.554;7.032;2023-04-06T03:30:56;1.40;99.90
43015;DHT22;28637;50.554;7.032;2023-04-06T03:35:57;1.40;99.90
43015;DHT22;28637;50.554;7.032;2023-04-06T03:40:58;1.40;99.90
43015;DHT22;28637;50.554;7.032;2023-04-06T03:45:59;1.40;99.90
43015;DHT22;28637;50.554;7.032;2023-04-06T03:51:00;1.40;99.90
43015;DHT22;28637;50.554;7.032;2023-04-06T03:56:00;1.40;99.90
43015;DHT22;28637;50.554;7.032;2023-04-06T04:01:01;1.50;99.90
43015;DHT22;28637;50.554;7.032;2023-04-06T04:06:02;1.40;99.90
43015;DHT22;28637;50.554;7.032;2023-04-06T04:11:03;1.40;99.90
43015;DHT22;28637;50.554;7.032;2023-04-06T04:16:03;1.30;99.90
43015;DHT22;28637;50.554;7.032;2023-04-06T04:21:04;0.90;99.90
43015;DHT22;28637;50.554;7.032;2023-04-06T04:26:05;0.90;99.90
43015;DHT22;28637;50.554;7.032;2023-04-06T04:31:06;0.80;99.90
43015;DHT22;28637;50.554;7.032;2023-04-06T04:36:07;0.80;99.90
43015;DHT22;28637;50.554;7.032;2023-04-06T04:41:07;0.90;99.90
43015;DHT22;28637;50.554;7.032;2023-04-06T04:46:08;1.00;99.90
43015;DHT22;28637;50.554;7.032;2023-04-06T04:51:09;1.20;99.90
43015;DHT22;28637;50.554;7.032;2023-04-06T04:56:09;1.20;99.90
43015;DHT22;28637;50.554;7.032;2023-04-06T05:01:10;1.30;99.90
43015;DHT22;28637;50.554;7.032;2023-04-06T05:06:11;1.00;99.90
43015;DHT22;28637;50.554;7.032;2023-04-06T05:11:11;0.80;99.90
43015;DHT22;28637;50.554;7.032;2023-04-06T05:16:12;1.00;99.90
43015;DHT22;28637;50.554;7.032;2023-04-06T05:21:13;1.30;99.90
43015;DHT22;28637;50.554;7.032;2023-04-06T05:26:13;1.50;99.90
43015;DHT22;28637;50.554;7.032;2023-04-06T05:31:14;1.60;99.90
43015;DHT22;28637;50.554;7.032;2023-04-06T05:36:16;1.80;99.90
43015;DHT22;28637;50.554;7.032;2023-04-06T05:41:17;1.90;99.90
43015;DHT22;28637;50.554;7.032;2023-04-06T05:46:18;2.00;99.90
43015;DHT22;28637;50.554;7.032;2023-04-06T05:51:19;2.10;99.90
43015;DHT22;28637;50.554;7.032;2023-04-06T05:56:19;2.30;99.90
43015;DHT22;28637;50.554;7.032;2023-04-06T06:01:20;2.40;99.90
43015;DHT22;28637;50.554;7.032;2023-04-06T06:06:21;2.60;99.90
43015;DHT22;28637;50.554;7.032;2023-04-06T06:11:22;2.70;99.90
43015;DHT22;28637;50.554;7.032;2023-04-06T06:16:22;2.80;99.90
43015;DHT22;28637;50.554;7.032;2023-04-06T06:21:23;3.00;99.90
43015;DHT22;28637;50.554;7.032;2023-04-06T06:26:24;3.10;99.90
43015;DHT22;28637;50.554;7.032;2023-04-06T06:31:25;3.20;99.90
43015;DHT22;28637;50.554;7.032;2023-04-06T06:36:26;3.30;99.90
43015;DHT22;28637;50.554;7.032;2023-04-06T06:41:27;3.40;99.90
43015;DHT22;28637;50.554;7.032;2023-04-06T06:46:28;3.50;99.90
43015;DHT22;28637;50.554;7.032;2023-04-06T06:51:28;3.40;99.90
43015;DHT22;28637;50.554;7.032;2023-04-06T06:56:29;3.50;99.90
43015;DHT22;28637;50.554;7.032;2023-04-06T07:01:33;3.70;99.90
43015;DHT22;28637;50.554;7.032;2023-04-06T07:06:35;3.90;99.90
43015;DHT22;28637;50.554;7.032;2023-04-06T07:11:36;4.30;99.90
43015;DHT22;28637;50.554;7.032;2023-04-06T07:16:37;4.60;99.90
43015;DHT22;28637;50.554;7.032;2023-04-06T07:21:38;4.90;99.90
43015;DHT22;28637;50.554;7.032;2023-04-06T07:26:38;5.30;99.90
43015;DHT22;28637;50.554;7.032;2023-04-06T07:31:39;5.50;99.90
43015;DHT22;28637;50.554;7.032;2023-04-06T07:36:40;5.90;99.90
43015;DHT22;28637;50.554;7.032;2023-04-06T07:41:41;6.30;99.90
43015;DHT22;28637;50.554;7.032;2023-04-06T07:46:41;6.70;99.90
43015;DHT22;28637;50.554;7.032;2023-04-06T07:51:42;7.10;99.90
43015;DHT22;28637;50.554;7.032;2023-04-06T07:56:43;7.30;99.90
43015;DHT22;28637;50.554;7.032;2023-04-06T08:01:43;7.50;99.90
43015;DHT22;28637;50.554;7.032;2023-04-06T08:06:44;7.70;99.90
43015;DHT22;28637;50.554;7.032;2023-04-06T08:11:45;7.90;99.90
43015;DHT22;28637;50.554;7.032;2023-04-06T08:16:46;8.10;99.90
43015;DHT22;28637;50.554;7.032;2023-04-06T08:21:47;8.30;99.90
43015;DHT22;28637;50.554;7.032;2023-04-06T08:26:48;8.40;99.90
43015;DHT22;28637;50.554;7.032;2023-04-06T08:31:49;8.70;99.90
43015;DHT22;28637;50.554;7.032;2023-04-06T08:36:49;8.90;99.90
43015;DHT22;28637;50.554;7.032;2023-04-06T08:41:51;9.30;99.90
43015;DHT22;28637;50.554;7.032;2023-04-06T08:46:53;9.50;99.90
43015;DHT22;28637;50.554;7.032;2023-04-06T08:51:55;9.70;99.90
43015;DHT22;28637;50.554;7.032;2023-04-06T08:56:56;9.90;99.90
43015;DHT22;28637;50.554;7.032;2023-04-06T09:01:57;10.00;99.90
43015;DHT22;28637;50.554;7.032;2023-04-06T09:07:00;10.20;99.90
43015;DHT22;28637;50.554;7.032;2023-04-06T09:12:01;10.70;99.90
43015;DHT22;28637;50.554;7.032;2023-04-06T09:17:06;10.80;99.90
43015;DHT22;28637;50.554;7.032;2023-04-06T09:22:07;10.90;98.10
43015;DHT22;28637;50.554;7.032;2023-04-06T09:27:07;11.10;97.00
43015;DHT22;28637;50.554;7.032;2023-04-06T09:32:09;11.10;97.20
43015;DHT22;28637;50.554;7.032;2023-04-06T09:37:18;11.00;98.40
43015;DHT22;28637;50.554;7.032;2023-04-06T09:42:25;10.80;97.20
43015;DHT22;28637;50.554;7.032;2023-04-06T09:47:27;10.90;97.80
43015;DHT22;28637;50.554;7.032;2023-04-06T09:52:33;11.00;96.40
43015;DHT22;28637;50.554;7.032;2023-04-06T09:57:53;11.10;96.20
43015;DHT22;28637;50.554;7.032;2023-04-06T10:07:59;11.20;93.70
43015;DHT22;28637;50.554;7.032;2023-04-06T10:13:02;11.40;95.20
43015;DHT22;28637;50.554;7.032;2023-04-06T10:18:04;11.60;92.20
43015;DHT22;28637;50.554;7.032;2023-04-06T10:23:06;11.40;91.70
43015;DHT22;28637;50.554;7.032;2023-04-06T10:28:11;11.30;91.60
43015;DHT22;28637;50.554;7.032;2023-04-06T10:33:16;11.20;90.70
43015;DHT22;28637;50.554;7.032;2023-04-06T10:38:17;11.30;91.20
43015;DHT22;28637;50.554;7.032;2023-04-06T10:43:23;11.30;94.20
43015;DHT22;28637;50.554;7.032;2023-04-06T10:48:23;11.50;92.10
43015;DHT22;28637;50.554;7.032;2023-04-06T10:53:25;11.80;92.10
43015;DHT22;28637;50.554;7.032;2023-04-06T10:58:27;11.80;90.90
43015;DHT22;28637;50.554;7.032;2023-04-06T11:03:27;11.60;91.90
43015;DHT22;28637;50.554;7.032;2023-04-06T11:08:33;11.50;91.60
43015;DHT22;28637;50.554;7.032;2023-04-06T11:13:42;11.80;91.50
43015;DHT22;28637;50.554;7.032;2023-04-06T11:23:50;11.90;91.10
43015;DHT22;28637;50.554;7.032;2023-04-06T11:28:50;12.00;90.60
43015;DHT22;28637;50.554;7.032;2023-04-06T11:33:57;12.20;90.80
43015;DHT22;28637;50.554;7.032;2023-04-06T11:38:58;12.10;90.90
43015;DHT22;28637;50.554;7.032;2023-04-06T11:44:01;12.20;91.30
43015;DHT22;28637;50.554;7.032;2023-04-06T11:49:03;12.00;87.00
43015;DHT22;28637;50.554;7.032;2023-04-06T11:54:04;12.00;89.60
43015;DHT22;28637;50.554;7.032;2023-04-06T11:59:04;12.10;91.90
43015;DHT22;28637;50.554;7.032;2023-04-06T12:04:05;12.20;88.10
43015;DHT22;28637;50.554;7.032;2023-04-06T12:09:06;12.30;89.20
43015;DHT22;28637;50.554;7.032;2023-04-06T12:14:07;12.60;82.40
43015;DHT22;28637;50.554;7.032;2023-04-06T12:19:08;12.60;83.80
43015;DHT22;28637;50.554;7.032;2023-04-06T12:24:09;12.40;85.30
43015;DHT22;28637;50.554;7.032;2023-04-06T12:29:09;12.10;87.10
43015;DHT22;28637;50.554;7.032;2023-04-06T12:34:10;11.90;88.20
43015;DHT22;28637;50.554;7.032;2023-04-06T12:39:11;11.90;88.60
43015;DHT22;28637;50.554;7.032;2023-04-06T12:44:12;11.80;91.80
43015;DHT22;28637;50.554;7.032;2023-04-06T12:49:12;11.80;92.30
43015;DHT22;28637;50.554;7.032;2023-04-06T12:54:13;11.60;89.00
43015;DHT22;28637;50.554;7.032;2023-04-06T12:59:14;11.50;93.50
43015;DHT22;28637;50.554;7.032;2023-04-06T13:04:14;11.60;90.70
43015;DHT22;28637;50.554;7.032;2023-04-06T13:09:15;11.50;91.70
43015;DHT22;28637;50.554;7.032;2023-04-06T13:14:16;11.60;93.80
43015;DHT22;28637;50.554;7.032;2023-04-06T13:19:17;11.20;94.40
43015;DHT22;28637;50.554;7.032;2023-04-06T13:24:18;11.00;94.40
43015;DHT22;28637;50.554;7.032;2023-04-06T13:29:20;10.90;95.90
43015;DHT22;28637;50.554;7.032;2023-04-06T13:34:21;10.90;98.30
43015;DHT22;28637;50.554;7.032;2023-04-06T13:39:21;11.10;98.50
43015;DHT22;28637;50.554;7.032;2023-04-06T13:44:22;11.10;98.20
43015;DHT22;28637;50.554;7.032;2023-04-06T13:49:23;11.00;97.60
43015;DHT22;28637;50.554;7.032;2023-04-06T13:54:23;11.10;98.00
43015;DHT22;28637;50.554;7.032;2023-04-06T13:59:32;11.20;99.90
43015;DHT22;28637;50.554;7.032;2023-04-06T14:04:33;11.30;99.90
43015;DHT22;28637;50.554;7.032;2023-04-06T14:09:34;11.30;99.90
43015;DHT22;28637;50.554;7.032;2023-04-06T14:14:35;11.10;99.90
43015;DHT22;28637;50.554;7.032;2023-04-06T14:19:36;10.60;99.90
43015;DHT22;28637;50.554;7.032;2023-04-06T14:24:36;10.30;99.90
43015;DHT22;28637;50.554;7.032;2023-04-06T14:29:37;10.10;99.90
43015;DHT22;28637;50.554;7.032;2023-04-06T14:34:38;10.00;99.90
43015;DHT22;28637;50.554;7.032;2023-04-06T14:39:39;9.90;99.90
43015;DHT22;28637;50.554;7.032;2023-04-06T14:44:40;9.90;99.90
43015;DHT22;28637;50.554;7.032;2023-04-06T14:49:43;9.80;99.90
43015;DHT22;28637;50.554;7.032;2023-04-06T14:54:44;9.90;99.90
43015;DHT22;28637;50.554;7.032;2023-04-06T14:59:44;9.70;99.90
43015;DHT22;28637;50.554;7.032;2023-04-06T15:04:45;9.50;99.90
43015;DHT22;28637;50.554;7.032;2023-04-06T15:09:46;9.50;99.90
43015;DHT22;28637;50.554;7.032;2023-04-06T15:14:46;9.60;99.90
43015;DHT22;28637;50.554;7.032;2023-04-06T15:19:47;9.40;99.90
43015;DHT22;28637;50.554;7.032;2023-04-06T15:24:48;9.40;99.90
43015;DHT22;28637;50.554;7.032;2023-04-06T15:29:49;9.30;99.90
43015;DHT22;28637;50.554;7.032;2023-04-06T15:34:50;9.20;99.90
43015;DHT22;28637;50.554;7.032;2023-04-06T15:39:50;9.00;99.90
43015;DHT22;28637;50.554;7.032;2023-04-06T15:44:51;8.80;99.90
43015;DHT22;28637;50.554;7.032;2023-04-06T15:49:51;8.70;99.90
43015;DHT22;28637;50.554;7.032;2023-04-06T15:54:52;8.60;99.90
43015;DHT22;28637;50.554;7.032;2023-04-06T15:59:53;8.60;99.90
43015;DHT22;28637;50.554;7.032;2023-04-06T16:04:56;8.60;99.90
43015;DHT22;28637;50.554;7.032;2023-04-06T16:09:57;8.50;99.90
43015;DHT22;28637;50.554;7.032;2023-04-06T16:14:58;8.50;99.90
43015;DHT22;28637;50.554;7.032;2023-04-06T16:19:59;8.40;99.90
43015;DHT22;28637;50.554;7.032;2023-04-06T16:24:59;8.30;99.90
43015;DHT22;28637;50.554;7.032;2023-04-06T16:30:00;8.40;99.90
43015;DHT22;28637;50.554;7.032;2023-04-06T16:35:05;8.50;99.90
43015;DHT22;28637;50.554;7.032;2023-04-06T16:40:06;8.80;99.90
43015;DHT22;28637;50.554;7.032;2023-04-06T16:45:08;8.80;99.90
43015;DHT22;28637;50.554;7.032;2023-04-06T16:50:11;8.70;99.90
43015;DHT22;28637;50.554;7.032;2023-04-06T16:55:11;8.60;99.90
43015;DHT22;28637;50.554;7.032;2023-04-06T17:00:12;8.50;99.90
43015;DHT22;28637;50.554;7.032;2023-04-06T17:05:13;8.30;99.90
43015;DHT22;28637;50.554;7.032;2023-04-06T17:10:15;8.30;99.90
43015;DHT22;28637;50.554;7.032;2023-04-06T17:15:15;8.10;99.90
43015;DHT22;28637;50.554;7.032;2023-04-06T17:20:17;8.00;99.90
43015;DHT22;28637;50.554;7.032;2023-04-06T17:25:19;7.80;99.90
43015;DHT22;28637;50.554;7.032;2023-04-06T17:30:20;7.70;99.90
43015;DHT22;28637;50.554;7.032;2023-04-06T17:35:21;7.70;99.90
43015;DHT22;28637;50.554;7.032;2023-04-06T17:40:22;7.60;99.90
43015;DHT22;28637;50.554;7.032;2023-04-06T17:45:23;7.50;99.90
43015;DHT22;28637;50.554;7.032;2023-04-06T17:50:24;7.70;99.90
43015;DHT22;28637;50.554;7.032;2023-04-06T17:55:26;7.60;99.90
43015;DHT22;28637;50.554;7.032;2023-04-06T18:00:27;7.50;99.90
43015;DHT22;28637;50.554;7.032;2023-04-06T18:05:27;7.50;99.90
43015;DHT22;28637;50.554;7.032;2023-04-06T18:10:28;7.30;99.90
43015;DHT22;28637;50.554;7.032;2023-04-06T18:15:29;7.30;99.90
43015;DHT22;28637;50.554;7.032;2023-04-06T18:20:30;7.20;99.90
43015;DHT22;28637;50.554;7.032;2023-04-06T18:25:31;7.20;99.90
43015;DHT22;28637;50.554;7.032;2023-04-06T18:30:36;7.20;99.90
43015;DHT22;28637;50.554;7.032;2023-04-06T18:35:37;7.20;99.90
43015;DHT22;28637;50.554;7.032;2023-04-06T18:40:39;7.20;99.90
43015;DHT22;28637;50.554;7.032;2023-04-06T18:45:40;7.20;99.90
43015;DHT22;28637;50.554;7.032;2023-04-06T18:50:56;7.30;99.90
43015;DHT22;28637;50.554;7.032;2023-04-06T18:56:00;7.30;99.90
43015;DHT22;28637;50.554;7.032;2023-04-06T19:01:02;7.30;99.90
43015;DHT22;28637;50.554;7.032;2023-04-06T19:06:04;7.30;99.90
43015;DHT22;28637;50.554;7.032;2023-04-06T19:11:07;7.30;99.90
43015;DHT22;28637;50.554;7.032;2023-04-06T19:16:08;7.30;99.90
43015;DHT22;28637;50.554;7.032;2023-04-06T19:21:16;7.30;99.90
43015;DHT22;28637;50.554;7.032;2023-04-06T19:26:20;7.30;99.90
43015;DHT22;28637;50.554;7.032;2023-04-06T19:31:21;7.30;99.90
43015;DHT22;28637;50.554;7.032;2023-04-06T19:36:22;7.20;99.90
43015;DHT22;28637;50.554;7.032;2023-04-06T19:41:23;7.30;99.90
43015;DHT22;28637;50.554;7.032;2023-04-06T19:46:24;7.20;99.90
43015;DHT22;28637;50.554;7.032;2023-04-06T19:51:29;7.20;99.90
43015;DHT22;28637;50.554;7.032;2023-04-06T19:56:29;7.20;99.90
43015;DHT22;28637;50.554;7.032;2023-04-06T20:01:33;7.30;99.90
43015;DHT22;28637;50.554;7.032;2023-04-06T20:06:34;7.30;99.90
43015;DHT22;28637;50.554;7.032;2023-04-06T20:11:34;7.40;99.90
43015;DHT22;28637;50.554;7.032;2023-04-06T20:16:35;7.30;99.90
43015;DHT22;28637;50.554;7.032;2023-04-06T20:21:36;7.40;99.90
43015;DHT22;28637;50.554;7.032;2023-04-06T20:26:37;7.40;99.90
43015;DHT22;28637;50.554;7.032;2023-04-06T20:31:37;7.60;99.90
43015;DHT22;28637;50.554;7.032;2023-04-06T20:36:38;7.50;99.90
43015;DHT22;28637;50.554;7.032;2023-04-06T20:41:39;7.50;99.90
43015;DHT22;28637;50.554;7.032;2023-04-06T20:46:40;7.50;99.90
43015;DHT22;28637;50.554;7.032;2023-04-06T20:51:42;7.50;99.90
43015;DHT22;28637;50.554;7.032;2023-04-06T20:56:44;7.50;99.90
43015;DHT22;28637;50.554;7.032;2023-04-06T21:01:45;7.50;99.90
43015;DHT22;28637;50.554;7.032;2023-04-06T21:06:46;7.50;99.90
43015;DHT22;28637;50.554;7.032;2023-04-06T21:11:47;7.60;99.90
43015;DHT22;28637;50.554;7.032;2023-04-06T21:16:48;7.60;99.90
43015;DHT22;28637;50.554;7.032;2023-04-06T21:21:49;7.60;99.90
43015;DHT22;28637;50.554;7.032;2023-04-06T21:26:50;7.60;99.90
43015;DHT22;28637;50.554;7.032;2023-04-06T21:31:50;7.60;99.90
43015;DHT22;28637;50.554;7.032;2023-04-06T21:36:52;7.60;99.90
43015;DHT22;28637;50.554;7.032;2023-04-06T21:41:52;7.60;99.90
43015;DHT22;28637;50.554;7.032;2023-04-06T21:46:53;7.50;99.90
43015;DHT22;28637;50.554;7.032;2023-04-06T21:51:53;7.50;99.90
43015;DHT22;28637;50.554;7.032;2023-04-06T21:56:54;7.60;99.90
43015;DHT22;28637;50.554;7.032;2023-04-06T22:01:55;7.60;99.90
43015;DHT22;28637;50.554;7.032;2023-04-06T22:06:56;7.60;99.90
43015;DHT22;28637;50.554;7.032;2023-04-06T22:11:57;7.60;99.90
43015;DHT22;28637;50.554;7.032;2023-04-06T22:16:57;7.60;99.90
43015;DHT22;28637;50.554;7.032;2023-04-06T22:21:58;7.60;99.90
43015;DHT22;28637;50.554;7.032;2023-04-06T22:26:59;7.60;99.90
43015;DHT22;28637;50.554;7.032;2023-04-06T22:31:59;7.60;99.90
43015;DHT22;28637;50.554;7.032;2023-04-06T22:37:00;7.60;99.90
43015;DHT22;28637;50.554;7.032;2023-04-06T22:42:01;7.60;99.90
43015;DHT22;28637;50.554;7.032;2023-04-06T22:47:01;7.60;99.90
43015;DHT22;28637;50.554;7.032;2023-04-06T22:52:02;7.60;99.90
43015;DHT22;28637;50.554;7.032;2023-04-06T22:57:03;7.70;99.90
43015;DHT22;28637;50.554;7.032;2023-04-06T23:02:04;7.80;99.90
43015;DHT22;28637;50.554;7.032;2023-04-06T23:07:05;7.80;99.90
43015;DHT22;28637;50.554;7.032;2023-04-06T23:12:06;7.80;99.90
43015;DHT22;28637;50.554;7.032;2023-04-06T23:17:07;7.80;99.90
43015;DHT22;28637;50.554;7.032;2023-04-06T23:22:08;7.80;99.90
43015;DHT22;28637;50.554;7.032;2023-04-06T23:27:09;7.80;99.90
43015;DHT22;28637;50.554;7.032;2023-04-06T23:32:10;7.70;99.90
43015;DHT22;28637;50.554;7.032;2023-04-06T23:37:10;7.80;99.90
43015;DHT22;28637;50.554;7.032;2023-04-06T23:42:11;7.70;99.90
43015;DHT22;28637;50.554;7.032;2023-04-06T23:47:12;7.80;99.90
43015;DHT22;28637;50.554;7.032;2023-04-06T23:52:12;7.70;99.90
43015;DHT22;28637;50.554;7.032;2023-04-06T23:57:13;7.70;99.90
